sensor_id;sensor_type;location;lat;lon;timestamp;pressure;altitude;pressure_sealevel;temperature;humidity
12757;BME280;31601;48.042;12.240;2023-07-20T00:00:39;96011.59;;;21.03;71.73
12757;BME280;31601;48.042;12.240;2023-07-20T00:03:13;96018.25;;;21.00;71.79
12757;BME280;31601;48.042;12.240;2023-07-20T00:05:42;95998.53;;;21.01;71.69
12757;BME280;31601;48.042;12.240;2023-07-20T00:08:09;95957.47;;;21.02;71.58
12757;BME280;31601;48.042;12.240;2023-07-20T00:10:35;96005.38;;;20.92;72.65
12757;BME280;31601;48.042;12.240;2023-07-20T00:13:03;96017.81;;;20.76;72.48
12757;BME280;31601;48.042;12.240;2023-07-20T00:15:29;96009.94;;;20.64;73.28
12757;BME280;31601;48.042;12.240;2023-07-20T00:17:56;95986.94;;;20.58;73.98
12757;BME280;31601;48.042;12.240;2023-07-20T00:20:23;95981.91;;;20.62;73.96
12757;BME280;31601;48.042;12.240;2023-07-20T00:22:50;95982.38;;;20.53;74.13
12757;BME280;31601;48.042;12.240;2023-07-20T00:25:17;95990.13;;;20.55;74.74
12757;BME280;31601;48.042;12.240;2023-07-20T00:27:44;95990.13;;;20.55;74.74
12757;BME280;31601;48.042;12.240;2023-07-20T00:30:12;95984.81;;;20.60;75.02
12757;BME280;31601;48.042;12.240;2023-07-20T00:32:39;95990.25;;;20.65;74.77
12757;BME280;31601;48.042;12.240;2023-07-20T00:35:06;95988.91;;;20.68;74.55
12757;BME280;31601;48.042;12.240;2023-07-20T00:37:32;95986.06;;;20.74;74.44
12757;BME280;31601;48.042;12.240;2023-07-20T00:39:59;95997.81;;;20.79;74.62
12757;BME280;31601;48.042;12.240;2023-07-20T00:42:25;95987.41;;;20.77;74.91
12757;BME280;31601;48.042;12.240;2023-07-20T00:44:52;95986.09;;;20.80;74.43
12757;BME280;31601;48.042;12.240;2023-07-20T00:47:19;95991.53;;;20.63;74.63
12757;BME280;31601;48.042;12.240;2023-07-20T00:49:46;95988.84;;;20.63;74.69
12757;BME280;31601;48.042;12.240;2023-07-20T00:52:13;95985.09;;;20.58;74.56
12757;BME280;31601;48.042;12.240;2023-07-20T00:54:41;95993.94;;;20.64;74.07
12757;BME280;31601;48.042;12.240;2023-07-20T00:57:07;95991.25;;;20.59;74.91
12757;BME280;31601;48.042;12.240;2023-07-20T00:59:34;96011.22;;;20.62;74.75
12757;BME280;31601;48.042;12.240;2023-07-20T01:02:01;96008.09;;;20.65;74.82
12757;BME280;31601;48.042;12.240;2023-07-20T01:04:29;96005.09;;;20.61;74.98
12757;BME280;31601;48.042;12.240;2023-07-20T01:07:01;96002.50;;;20.66;74.65
12757;BME280;31601;48.042;12.240;2023-07-20T01:09:33;96010.25;;;20.68;74.56
12757;BME280;31601;48.042;12.240;2023-07-20T01:12:07;96004.41;;;20.71;74.48
12757;BME280;31601;48.042;12.240;2023-07-20T01:14:34;96006.56;;;20.74;74.19
12757;BME280;31601;48.042;12.240;2023-07-20T01:17:01;96000.41;;;20.68;73.94
12757;BME280;31601;48.042;12.240;2023-07-20T01:19:29;95998.53;;;20.69;74.24
12757;BME280;31601;48.042;12.240;2023-07-20T01:21:59;95998.03;;;20.72;74.52
12757;BME280;31601;48.042;12.240;2023-07-20T01:24:57;95994.06;;;20.74;74.15
12757;BME280;31601;48.042;12.240;2023-07-20T01:27:54;95986.34;;;20.78;73.38
12757;BME280;31601;48.042;12.240;2023-07-20T01:30:39;95988.72;;;20.74;73.26
12757;BME280;31601;48.042;12.240;2023-07-20T01:33:11;95969.25;;;20.74;73.31
12757;BME280;31601;48.042;12.240;2023-07-20T01:35:41;95970.88;;;20.75;73.46
12757;BME280;31601;48.042;12.240;2023-07-20T01:38:09;95988.72;;;20.74;73.14
12757;BME280;31601;48.042;12.240;2023-07-20T01:40:36;96013.41;;;20.65;72.79
12757;BME280;31601;48.042;12.240;2023-07-20T01:43:03;96025.44;;;20.67;72.48
12757;BME280;31601;48.042;12.240;2023-07-20T01:45:30;96012.38;;;20.66;72.30
12757;BME280;31601;48.042;12.240;2023-07-20T01:47:56;95996.97;;;20.73;72.45
12757;BME280;31601;48.042;12.240;2023-07-20T01:50:24;96000.41;;;20.68;72.20
12757;BME280;31601;48.042;12.240;2023-07-20T01:52:50;96001.50;;;20.72;71.99
12757;BME280;31601;48.042;12.240;2023-07-20T01:55:17;95998.00;;;20.45;73.14
12757;BME280;31601;48.042;12.240;2023-07-20T01:57:43;96006.84;;;20.45;73.69
12757;BME280;31601;48.042;12.240;2023-07-20T02:00:11;95999.16;;;20.54;73.16
12757;BME280;31601;48.042;12.240;2023-07-20T02:02:37;96000.50;;;20.51;73.63
12757;BME280;31601;48.042;12.240;2023-07-20T02:05:04;96002.09;;;20.52;73.91
12757;BME280;31601;48.042;12.240;2023-07-20T02:07:32;96004.81;;;20.57;73.99
12757;BME280;31601;48.042;12.240;2023-07-20T02:09:58;96005.91;;;20.62;73.72
12757;BME280;31601;48.042;12.240;2023-07-20T02:12:24;96003.81;;;20.64;73.81
12757;BME280;31601;48.042;12.240;2023-07-20T02:14:51;95991.38;;;20.47;74.29
12757;BME280;31601;48.042;12.240;2023-07-20T02:17:18;95995.06;;;20.41;74.58
12757;BME280;31601;48.042;12.240;2023-07-20T02:19:44;95991.34;;;20.42;74.23
12757;BME280;31601;48.042;12.240;2023-07-20T02:22:11;95989.09;;;20.29;74.60
12757;BME280;31601;48.042;12.240;2023-07-20T02:24:38;95999.88;;;20.44;74.19
12757;BME280;31601;48.042;12.240;2023-07-20T02:27:05;96001.19;;;20.42;73.32
12757;BME280;31601;48.042;12.240;2023-07-20T02:29:32;96004.56;;;20.32;73.35
12757;BME280;31601;48.042;12.240;2023-07-20T02:31:59;96011.94;;;20.25;73.31
12757;BME280;31601;48.042;12.240;2023-07-20T02:34:25;95996.03;;;20.30;73.26
12757;BME280;31601;48.042;12.240;2023-07-20T02:36:52;95999.03;;;20.38;73.18
12757;BME280;31601;48.042;12.240;2023-07-20T02:39:19;95998.94;;;20.28;73.19
12757;BME280;31601;48.042;12.240;2023-07-20T02:41:48;96005.97;;;20.39;73.22
12757;BME280;31601;48.042;12.240;2023-07-20T02:44:14;96015.25;;;20.37;73.13
12757;BME280;31601;48.042;12.240;2023-07-20T02:46:41;96014.50;;;20.42;73.15
12757;BME280;31601;48.042;12.240;2023-07-20T02:49:07;96004.59;;;20.37;73.31
12757;BME280;31601;48.042;12.240;2023-07-20T02:51:34;96000.91;;;20.38;72.97
12757;BME280;31601;48.042;12.240;2023-07-20T02:54:00;96004.66;;;20.42;72.93
12757;BME280;31601;48.042;12.240;2023-07-20T02:56:26;96001.75;;;20.44;73.10
12757;BME280;31601;48.042;12.240;2023-07-20T02:58:54;96002.41;;;20.29;72.82
12757;BME280;31601;48.042;12.240;2023-07-20T03:01:21;96008.34;;;20.36;72.84
12757;BME280;31601;48.042;12.240;2023-07-20T03:03:48;95999.34;;;20.42;72.48
12757;BME280;31601;48.042;12.240;2023-07-20T03:06:15;95995.56;;;20.38;72.92
12757;BME280;31601;48.042;12.240;2023-07-20T03:08:42;95998.78;;;20.40;72.88
12757;BME280;31601;48.042;12.240;2023-07-20T03:11:12;96000.13;;;20.43;72.87
12757;BME280;31601;48.042;12.240;2023-07-20T03:13:39;96008.34;;;20.36;73.25
12757;BME280;31601;48.042;12.240;2023-07-20T03:16:07;96003.81;;;20.36;73.52
12757;BME280;31601;48.042;12.240;2023-07-20T03:18:37;96012.66;;;20.42;73.06
12757;BME280;31601;48.042;12.240;2023-07-20T03:21:04;96005.75;;;20.46;73.25
12757;BME280;31601;48.042;12.240;2023-07-20T03:23:31;95997.47;;;20.43;73.01
12757;BME280;31601;48.042;12.240;2023-07-20T03:25:57;95999.88;;;20.44;72.96
12757;BME280;31601;48.042;12.240;2023-07-20T03:28:24;96004.31;;;20.33;73.16
12757;BME280;31601;48.042;12.240;2023-07-20T03:30:53;96002.44;;;20.34;73.50
12757;BME280;31601;48.042;12.240;2023-07-20T03:33:21;96001.66;;;20.33;74.03
12757;BME280;31601;48.042;12.240;2023-07-20T03:35:48;96011.03;;;20.41;73.77
12757;BME280;31601;48.042;12.240;2023-07-20T03:38:14;96011.91;;;20.47;73.81
12757;BME280;31601;48.042;12.240;2023-07-20T03:40:49;96023.31;;;20.42;73.80
12757;BME280;31601;48.042;12.240;2023-07-20T03:43:15;96042.44;;;19.90;74.34
12757;BME280;31601;48.042;12.240;2023-07-20T03:45:42;96063.53;;;19.74;74.96
12757;BME280;31601;48.042;12.240;2023-07-20T03:48:08;96055.63;;;20.01;73.92
12757;BME280;31601;48.042;12.240;2023-07-20T03:50:37;96050.22;;;20.18;73.88
12757;BME280;31601;48.042;12.240;2023-07-20T03:53:03;96036.25;;;20.06;74.63
12757;BME280;31601;48.042;12.240;2023-07-20T03:55:30;96043.59;;;20.21;74.65
12757;BME280;31601;48.042;12.240;2023-07-20T03:57:56;96031.94;;;20.27;74.46
12757;BME280;31601;48.042;12.240;2023-07-20T04:00:23;96035.88;;;20.19;74.62
12757;BME280;31601;48.042;12.240;2023-07-20T04:02:49;96034.38;;;20.29;74.40
12757;BME280;31601;48.042;12.240;2023-07-20T04:05:16;96044.31;;;20.11;73.67
12757;BME280;31601;48.042;12.240;2023-07-20T04:07:44;96050.78;;;19.98;74.20
12757;BME280;31601;48.042;12.240;2023-07-20T04:10:11;96060.34;;;19.94;74.79
12757;BME280;31601;48.042;12.240;2023-07-20T04:12:37;96081.81;;;19.88;75.01
12757;BME280;31601;48.042;12.240;2023-07-20T04:15:04;96098.03;;;19.69;75.37
12757;BME280;31601;48.042;12.240;2023-07-20T04:17:31;96101.19;;;19.66;75.88
12757;BME280;31601;48.042;12.240;2023-07-20T04:19:58;96092.81;;;19.74;75.63
12757;BME280;31601;48.042;12.240;2023-07-20T04:22:24;96091.72;;;19.75;74.79
12757;BME280;31601;48.042;12.240;2023-07-20T04:24:53;96082.66;;;19.71;74.86
12757;BME280;31601;48.042;12.240;2023-07-20T04:27:20;96075.69;;;19.70;74.37
12757;BME280;31601;48.042;12.240;2023-07-20T04:29:47;96070.63;;;19.68;73.55
12757;BME280;31601;48.042;12.240;2023-07-20T04:32:13;96071.28;;;19.59;73.53
12757;BME280;31601;48.042;12.240;2023-07-20T04:34:40;96087.50;;;19.57;73.20
12757;BME280;31601;48.042;12.240;2023-07-20T04:37:06;96088.78;;;19.55;73.34
12757;BME280;31601;48.042;12.240;2023-07-20T04:39:33;96080.88;;;19.60;73.49
12757;BME280;31601;48.042;12.240;2023-07-20T04:42:01;96082.34;;;19.50;72.81
12757;BME280;31601;48.042;12.240;2023-07-20T04:44:27;96073.78;;;19.65;73.48
12757;BME280;31601;48.042;12.240;2023-07-20T04:46:53;96073.47;;;19.79;72.94
12757;BME280;31601;48.042;12.240;2023-07-20T04:49:20;96087.88;;;19.83;73.20
12757;BME280;31601;48.042;12.240;2023-07-20T04:51:46;96081.19;;;19.80;73.30
12757;BME280;31601;48.042;12.240;2023-07-20T04:54:13;96074.91;;;19.87;73.37
12757;BME280;31601;48.042;12.240;2023-07-20T04:56:40;96076.06;;;19.96;73.12
12757;BME280;31601;48.042;12.240;2023-07-20T04:59:07;96065.69;;;19.94;73.83
12757;BME280;31601;48.042;12.240;2023-07-20T05:01:34;96062.88;;;20.06;73.58
12757;BME280;31601;48.042;12.240;2023-07-20T05:04:00;96082.00;;;20.03;72.52
12757;BME280;31601;48.042;12.240;2023-07-20T05:06:27;96100.09;;;20.01;72.12
12757;BME280;31601;48.042;12.240;2023-07-20T05:08:53;96101.03;;;19.90;71.83
12757;BME280;31601;48.042;12.240;2023-07-20T05:11:19;96097.88;;;19.93;71.78
12757;BME280;31601;48.042;12.240;2023-07-20T05:13:46;96092.47;;;19.88;71.31
12757;BME280;31601;48.042;12.240;2023-07-20T05:16:14;96088.19;;;19.87;72.01
12757;BME280;31601;48.042;12.240;2023-07-20T05:18:40;96094.50;;;19.80;72.51
12757;BME280;31601;48.042;12.240;2023-07-20T05:21:07;96090.88;;;19.87;72.23
12757;BME280;31601;48.042;12.240;2023-07-20T05:23:33;96086.91;;;19.72;71.72
12757;BME280;31601;48.042;12.240;2023-07-20T05:26:00;96083.91;;;19.85;71.65
12757;BME280;31601;48.042;12.240;2023-07-20T05:28:26;96080.91;;;19.99;71.87
12757;BME280;31601;48.042;12.240;2023-07-20T05:30:53;96081.09;;;20.14;71.26
12757;BME280;31601;48.042;12.240;2023-07-20T05:33:21;96084.84;;;20.18;70.67
12757;BME280;31601;48.042;12.240;2023-07-20T05:35:48;96089.13;;;20.19;70.36
12757;BME280;31601;48.042;12.240;2023-07-20T05:38:14;96092.34;;;20.21;69.88
12757;BME280;31601;48.042;12.240;2023-07-20T05:40:41;96104.41;;;20.29;69.99
12757;BME280;31601;48.042;12.240;2023-07-20T05:43:08;96096.69;;;20.28;68.80
12757;BME280;31601;48.042;12.240;2023-07-20T05:45:34;96108.22;;;20.11;68.73
12757;BME280;31601;48.042;12.240;2023-07-20T05:48:01;96107.72;;;20.14;67.94
12757;BME280;31601;48.042;12.240;2023-07-20T05:50:29;96113.78;;;20.10;68.22
12757;BME280;31601;48.042;12.240;2023-07-20T05:52:55;96109.75;;;20.07;68.61
12757;BME280;31601;48.042;12.240;2023-07-20T05:55:21;96111.94;;;20.10;68.69
12757;BME280;31601;48.042;12.240;2023-07-20T05:57:48;96110.88;;;20.11;68.72
12757;BME280;31601;48.042;12.240;2023-07-20T06:00:15;96107.28;;;20.23;68.17
12757;BME280;31601;48.042;12.240;2023-07-20T06:02:44;96108.66;;;20.25;67.30
12757;BME280;31601;48.042;12.240;2023-07-20T06:05:11;96114.72;;;20.43;67.90
12757;BME280;31601;48.042;12.240;2023-07-20T06:07:39;96117.19;;;20.71;67.86
12757;BME280;31601;48.042;12.240;2023-07-20T06:10:06;96117.59;;;20.85;65.91
12757;BME280;31601;48.042;12.240;2023-07-20T06:12:32;96108.19;;;21.10;65.06
12757;BME280;31601;48.042;12.240;2023-07-20T06:15:01;96117.53;;;21.40;63.41
12757;BME280;31601;48.042;12.240;2023-07-20T06:17:28;96113.97;;;21.61;63.30
12757;BME280;31601;48.042;12.240;2023-07-20T06:19:54;96114.56;;;21.74;62.78
12757;BME280;31601;48.042;12.240;2023-07-20T06:22:21;96118.03;;;21.74;63.45
12757;BME280;31601;48.042;12.240;2023-07-20T06:24:48;96114.50;;;21.63;61.35
12757;BME280;31601;48.042;12.240;2023-07-20T06:27:15;96120.72;;;21.79;62.81
12757;BME280;31601;48.042;12.240;2023-07-20T06:29:41;96122.94;;;21.88;62.57
12757;BME280;31601;48.042;12.240;2023-07-20T06:32:08;96123.75;;;21.93;62.14
12757;BME280;31601;48.042;12.240;2023-07-20T06:34:34;96125.78;;;21.38;61.79
12757;BME280;31601;48.042;12.240;2023-07-20T06:37:04;96127.94;;;21.79;61.78
12757;BME280;31601;48.042;12.240;2023-07-20T06:39:30;96128.28;;;21.88;60.74
12757;BME280;31601;48.042;12.240;2023-07-20T06:41:58;96124.00;;;21.92;60.81
12757;BME280;31601;48.042;12.240;2023-07-20T06:44:24;96137.69;;;22.00;60.22
12757;BME280;31601;48.042;12.240;2023-07-20T06:46:51;96127.69;;;21.80;60.13
12757;BME280;31601;48.042;12.240;2023-07-20T06:49:24;96124.94;;;21.70;60.08
12757;BME280;31601;48.042;12.240;2023-07-20T06:51:51;96116.44;;;21.73;60.35
12757;BME280;31601;48.042;12.240;2023-07-20T06:54:17;96124.50;;;21.78;62.03
12757;BME280;31601;48.042;12.240;2023-07-20T06:56:43;96120.91;;;22.10;60.93
12757;BME280;31601;48.042;12.240;2023-07-20T06:59:11;96124.72;;;22.25;60.63
12757;BME280;31601;48.042;12.240;2023-07-20T07:01:38;96126.03;;;22.22;60.36
12757;BME280;31601;48.042;12.240;2023-07-20T07:04:05;96125.50;;;22.20;60.70
12757;BME280;31601;48.042;12.240;2023-07-20T07:06:31;96116.00;;;21.92;61.06
12757;BME280;31601;48.042;12.240;2023-07-20T07:08:58;96116.66;;;21.67;61.86
12757;BME280;31601;48.042;12.240;2023-07-20T07:11:24;96127.09;;;21.36;62.11
12757;BME280;31601;48.042;12.240;2023-07-20T07:13:51;96116.19;;;21.42;62.58
12757;BME280;31601;48.042;12.240;2023-07-20T07:16:18;96120.06;;;21.57;62.82
12757;BME280;31601;48.042;12.240;2023-07-20T07:18:45;96125.69;;;21.60;62.41
12757;BME280;31601;48.042;12.240;2023-07-20T07:21:11;96116.69;;;21.72;61.51
12757;BME280;31601;48.042;12.240;2023-07-20T07:23:38;96126.38;;;21.83;60.83
12757;BME280;31601;48.042;12.240;2023-07-20T07:26:05;96122.19;;;21.97;60.65
12757;BME280;31601;48.042;12.240;2023-07-20T07:28:32;96131.16;;;21.81;60.32
12757;BME280;31601;48.042;12.240;2023-07-20T07:30:58;96123.56;;;22.10;60.30
12757;BME280;31601;48.042;12.240;2023-07-20T07:33:26;96131.13;;;22.29;60.27
12757;BME280;31601;48.042;12.240;2023-07-20T07:35:52;96129.84;;;22.31;59.91
12757;BME280;31601;48.042;12.240;2023-07-20T07:38:19;96124.56;;;22.52;58.90
12757;BME280;31601;48.042;12.240;2023-07-20T07:40:45;96133.22;;;22.80;58.33
12757;BME280;31601;48.042;12.240;2023-07-20T07:43:12;96127.88;;;22.95;58.20
12757;BME280;31601;48.042;12.240;2023-07-20T07:45:39;96125.00;;;23.28;56.98
12757;BME280;31601;48.042;12.240;2023-07-20T07:48:06;96124.47;;;23.51;56.55
12757;BME280;31601;48.042;12.240;2023-07-20T07:50:34;96116.16;;;23.48;56.53
12757;BME280;31601;48.042;12.240;2023-07-20T07:53:01;96122.81;;;23.97;55.58
12757;BME280;31601;48.042;12.240;2023-07-20T07:55:28;96115.88;;;23.85;55.65
12757;BME280;31601;48.042;12.240;2023-07-20T07:57:54;96122.50;;;24.13;54.17
12757;BME280;31601;48.042;12.240;2023-07-20T08:00:21;96124.09;;;24.20;53.04
12757;BME280;31601;48.042;12.240;2023-07-20T08:02:49;96117.88;;;24.29;52.48
12757;BME280;31601;48.042;12.240;2023-07-20T08:05:16;96114.94;;;24.26;53.91
12757;BME280;31601;48.042;12.240;2023-07-20T08:07:44;96121.09;;;24.26;52.87
12757;BME280;31601;48.042;12.240;2023-07-20T08:10:11;96134.34;;;24.02;54.39
12757;BME280;31601;48.042;12.240;2023-07-20T08:12:38;96138.38;;;23.79;54.66
12757;BME280;31601;48.042;12.240;2023-07-20T08:15:05;96139.13;;;23.07;56.29
12757;BME280;31601;48.042;12.240;2023-07-20T08:17:31;96132.22;;;23.17;57.13
12757;BME280;31601;48.042;12.240;2023-07-20T08:19:58;96125.28;;;23.47;54.77
12757;BME280;31601;48.042;12.240;2023-07-20T08:22:25;96120.19;;;23.19;57.11
12757;BME280;31601;48.042;12.240;2023-07-20T08:24:53;96116.97;;;23.22;54.10
12757;BME280;31601;48.042;12.240;2023-07-20T08:27:19;96120.97;;;23.35;53.61
12757;BME280;31601;48.042;12.240;2023-07-20T08:29:46;96122.28;;;22.92;55.40
12757;BME280;31601;48.042;12.240;2023-07-20T08:32:12;96126.28;;;22.89;54.20
12757;BME280;31601;48.042;12.240;2023-07-20T08:34:39;96126.09;;;23.11;53.90
12757;BME280;31601;48.042;12.240;2023-07-20T08:37:06;96119.91;;;23.26;54.54
12757;BME280;31601;48.042;12.240;2023-07-20T08:39:35;96130.63;;;23.57;53.29
12757;BME280;31601;48.042;12.240;2023-07-20T08:42:04;96122.53;;;23.98;52.33
12757;BME280;31601;48.042;12.240;2023-07-20T08:44:32;96124.28;;;24.39;51.99
12757;BME280;31601;48.042;12.240;2023-07-20T08:46:59;96132.94;;;24.25;52.72
12757;BME280;31601;48.042;12.240;2023-07-20T08:49:27;96126.88;;;24.64;50.99
12757;BME280;31601;48.042;12.240;2023-07-20T08:51:54;96123.13;;;25.05;50.41
12757;BME280;31601;48.042;12.240;2023-07-20T08:54:20;96117.09;;;25.24;50.37
12757;BME280;31601;48.042;12.240;2023-07-20T08:56:47;96118.47;;;25.55;48.82
12757;BME280;31601;48.042;12.240;2023-07-20T08:59:17;96107.59;;;25.42;49.26
12757;BME280;31601;48.042;12.240;2023-07-20T09:01:44;96099.47;;;26.05;48.83
12757;BME280;31601;48.042;12.240;2023-07-20T09:04:11;96101.34;;;26.29;44.96
12757;BME280;31601;48.042;12.240;2023-07-20T09:06:37;96110.41;;;25.55;45.25
12757;BME280;31601;48.042;12.240;2023-07-20T09:09:04;96100.94;;;25.34;47.50
12757;BME280;31601;48.042;12.240;2023-07-20T09:11:31;96103.75;;;25.77;46.08
12757;BME280;31601;48.042;12.240;2023-07-20T09:14:04;96103.56;;;25.68;45.13
12757;BME280;31601;48.042;12.240;2023-07-20T09:16:33;96099.41;;;25.23;46.35
12757;BME280;31601;48.042;12.240;2023-07-20T09:19:14;96090.81;;;25.55;46.71
12757;BME280;31601;48.042;12.240;2023-07-20T09:21:40;96087.16;;;25.46;46.29
12757;BME280;31601;48.042;12.240;2023-07-20T09:24:07;96108.09;;;25.73;46.77
12757;BME280;31601;48.042;12.240;2023-07-20T09:26:40;96093.97;;;25.33;48.06
12757;BME280;31601;48.042;12.240;2023-07-20T09:29:07;96106.78;;;25.41;46.68
12757;BME280;31601;48.042;12.240;2023-07-20T09:31:35;96101.25;;;25.27;45.13
12757;BME280;31601;48.042;12.240;2023-07-20T09:34:02;96108.41;;;24.58;44.39
12757;BME280;31601;48.042;12.240;2023-07-20T09:36:29;96097.00;;;25.21;46.62
12757;BME280;31601;48.042;12.240;2023-07-20T09:38:58;96098.81;;;25.89;46.08
12757;BME280;31601;48.042;12.240;2023-07-20T09:41:25;96099.47;;;25.76;44.45
12757;BME280;31601;48.042;12.240;2023-07-20T09:43:52;96089.44;;;26.11;43.36
12757;BME280;31601;48.042;12.240;2023-07-20T09:46:20;96094.50;;;26.37;43.90
12757;BME280;31601;48.042;12.240;2023-07-20T09:48:53;96086.00;;;26.73;41.22
12757;BME280;31601;48.042;12.240;2023-07-20T09:51:21;96080.44;;;26.64;42.76
12757;BME280;31601;48.042;12.240;2023-07-20T09:53:48;96082.91;;;26.98;42.59
12757;BME280;31601;48.042;12.240;2023-07-20T09:56:16;96077.06;;;26.77;40.34
12757;BME280;31601;48.042;12.240;2023-07-20T09:58:44;96068.78;;;25.82;39.82
12757;BME280;31601;48.042;12.240;2023-07-20T10:01:12;96072.16;;;25.69;40.32
12757;BME280;31601;48.042;12.240;2023-07-20T10:03:44;96075.75;;;25.83;42.07
12757;BME280;31601;48.042;12.240;2023-07-20T10:06:15;96079.78;;;25.86;41.78
12757;BME280;31601;48.042;12.240;2023-07-20T10:08:45;96082.63;;;25.95;42.57
12757;BME280;31601;48.042;12.240;2023-07-20T10:11:15;96077.75;;;26.64;42.28
12757;BME280;31601;48.042;12.240;2023-07-20T10:13:43;96077.94;;;26.73;40.48
12757;BME280;31601;48.042;12.240;2023-07-20T10:16:11;96078.91;;;26.15;42.90
12757;BME280;31601;48.042;12.240;2023-07-20T10:18:42;96076.50;;;26.56;40.79
12757;BME280;31601;48.042;12.240;2023-07-20T10:21:17;96064.94;;;26.56;40.12
12757;BME280;31601;48.042;12.240;2023-07-20T10:23:44;96073.25;;;25.04;41.72
12757;BME280;31601;48.042;12.240;2023-07-20T10:26:11;96070.22;;;25.45;43.62
12757;BME280;31601;48.042;12.240;2023-07-20T10:28:39;96068.75;;;26.12;40.46
12757;BME280;31601;48.042;12.240;2023-07-20T10:31:07;96057.97;;;26.55;41.13
12757;BME280;31601;48.042;12.240;2023-07-20T10:33:34;96061.66;;;27.16;41.13
12757;BME280;31601;48.042;12.240;2023-07-20T10:36:03;96066.41;;;26.48;38.95
12757;BME280;31601;48.042;12.240;2023-07-20T10:38:42;96064.75;;;26.90;39.93
12757;BME280;31601;48.042;12.240;2023-07-20T10:41:19;96064.22;;;26.50;39.03
12757;BME280;31601;48.042;12.240;2023-07-20T10:43:46;96060.94;;;26.53;41.56
12757;BME280;31601;48.042;12.240;2023-07-20T10:46:13;96059.84;;;25.87;37.57
12757;BME280;31601;48.042;12.240;2023-07-20T10:48:59;96058.41;;;26.00;38.60
12757;BME280;31601;48.042;12.240;2023-07-20T10:51:26;96050.53;;;25.79;39.21
12757;BME280;31601;48.042;12.240;2023-07-20T10:53:54;96045.09;;;25.60;39.55
12757;BME280;31601;48.042;12.240;2023-07-20T10:56:26;96044.88;;;25.81;41.44
12757;BME280;31601;48.042;12.240;2023-07-20T10:58:55;96041.53;;;26.37;41.04
12757;BME280;31601;48.042;12.240;2023-07-20T11:01:27;96040.66;;;26.99;40.82
12757;BME280;31601;48.042;12.240;2023-07-20T11:03:57;96048.34;;;26.11;41.14
12757;BME280;31601;48.042;12.240;2023-07-20T11:06:32;96036.69;;;25.91;39.54
12757;BME280;31601;48.042;12.240;2023-07-20T11:09:09;96034.59;;;27.07;39.12
12757;BME280;31601;48.042;12.240;2023-07-20T11:11:37;96036.44;;;26.55;38.67
12757;BME280;31601;48.042;12.240;2023-07-20T11:14:05;96037.06;;;25.84;37.74
12757;BME280;31601;48.042;12.240;2023-07-20T11:16:37;96044.59;;;25.82;38.67
12757;BME280;31601;48.042;12.240;2023-07-20T11:19:05;96036.66;;;25.72;38.95
12757;BME280;31601;48.042;12.240;2023-07-20T11:21:36;96044.53;;;26.12;36.81
12757;BME280;31601;48.042;12.240;2023-07-20T11:24:04;96035.34;;;25.69;39.33
12757;BME280;31601;48.042;12.240;2023-07-20T11:26:39;96036.34;;;26.03;39.59
12757;BME280;31601;48.042;12.240;2023-07-20T11:29:06;96022.50;;;26.34;38.48
12757;BME280;31601;48.042;12.240;2023-07-20T11:31:35;96030.03;;;27.22;37.71
12757;BME280;31601;48.042;12.240;2023-07-20T11:34:01;96025.56;;;27.92;35.98
12757;BME280;31601;48.042;12.240;2023-07-20T11:36:28;96021.09;;;26.93;36.56
12757;BME280;31601;48.042;12.240;2023-07-20T11:38:54;96016.28;;;26.52;35.12
12757;BME280;31601;48.042;12.240;2023-07-20T11:41:21;96014.34;;;26.20;36.82
12757;BME280;31601;48.042;12.240;2023-07-20T11:43:49;96011.28;;;26.26;34.88
12757;BME280;31601;48.042;12.240;2023-07-20T11:46:15;96000.91;;;26.39;33.82
12757;BME280;31601;48.042;12.240;2023-07-20T11:49:00;96002.44;;;26.45;36.25
12757;BME280;31601;48.042;12.240;2023-07-20T11:51:28;96008.22;;;25.90;36.91
12757;BME280;31601;48.042;12.240;2023-07-20T11:53:55;96000.22;;;25.61;35.77
12757;BME280;31601;48.042;12.240;2023-07-20T11:56:22;96005.13;;;25.29;37.15
12757;BME280;31601;48.042;12.240;2023-07-20T11:58:50;95999.25;;;25.51;37.24
12757;BME280;31601;48.042;12.240;2023-07-20T12:01:17;96000.72;;;25.87;36.53
12757;BME280;31601;48.042;12.240;2023-07-20T12:03:45;95998.88;;;26.31;35.85
12757;BME280;31601;48.042;12.240;2023-07-20T12:06:13;95997.75;;;25.88;37.37
12757;BME280;31601;48.042;12.240;2023-07-20T12:08:40;96000.16;;;25.90;35.58
12757;BME280;31601;48.042;12.240;2023-07-20T12:11:07;95998.69;;;25.54;35.87
12757;BME280;31601;48.042;12.240;2023-07-20T12:13:38;95998.19;;;25.77;36.58
12757;BME280;31601;48.042;12.240;2023-07-20T12:16:13;95986.63;;;26.00;35.90
12757;BME280;31601;48.042;12.240;2023-07-20T12:18:40;95981.06;;;25.91;35.98
12757;BME280;31601;48.042;12.240;2023-07-20T12:21:06;95977.34;;;26.31;36.11
12757;BME280;31601;48.042;12.240;2023-07-20T12:23:37;95974.66;;;26.50;33.47
12757;BME280;31601;48.042;12.240;2023-07-20T12:26:06;95969.28;;;26.50;32.88
12757;BME280;31601;48.042;12.240;2023-07-20T12:28:35;95974.06;;;26.15;34.65
12757;BME280;31601;48.042;12.240;2023-07-20T12:31:02;95969.75;;;26.71;35.23
12757;BME280;31601;48.042;12.240;2023-07-20T12:33:30;95964.78;;;27.11;32.94
12757;BME280;31601;48.042;12.240;2023-07-20T12:35:56;95958.63;;;26.58;33.29
12757;BME280;31601;48.042;12.240;2023-07-20T12:38:24;95958.59;;;26.25;33.67
12757;BME280;31601;48.042;12.240;2023-07-20T12:40:52;95963.53;;;26.18;32.67
12757;BME280;31601;48.042;12.240;2023-07-20T12:43:20;95957.13;;;26.14;33.39
12757;BME280;31601;48.042;12.240;2023-07-20T12:45:46;95957.88;;;26.20;33.51
12757;BME280;31601;48.042;12.240;2023-07-20T12:48:13;95959.03;;;25.70;37.06
12757;BME280;31601;48.042;12.240;2023-07-20T12:50:41;95962.44;;;25.76;35.90
12757;BME280;31601;48.042;12.240;2023-07-20T12:53:07;95956.00;;;25.96;35.75